Time;durP1;ratioP1;P1;durP2;ratioP2;P2;SDS_P1;SDS_P2;PMS_P1;PMS_P2;Temp;Humidity;BMP_temperature;BMP_pressure;BME280_temperature;BME280_humidity;BME280_pressure;Samples;Min_cycle;Max_cycle;Signal;HPM_P1;HPM_P2
2023/01/04 00:00:44;;;;;;;10.13;3.30;;;;;;;7.65;100.00;101886.47;4990588;28;20026;-90
2023/01/04 00:03:09;;;;;;;12.43;3.42;;;;;;;7.63;100.00;101882.22;5000497;28;20390;-90
2023/01/04 00:05:35;;;;;;;10.48;3.70;;;;;;;7.63;100.00;101869.97;4993327;28;20595;-90
2023/01/04 00:08:00;;;;;;;11.73;3.58;;;;;;;7.62;100.00;101870.06;4989722;28;20502;-91
2023/01/04 00:10:25;;;;;;;9.90;3.53;;;;;;;7.59;100.00;101854.44;4989424;28;20030;-91
2023/01/04 00:12:51;;;;;;;9.73;3.95;;;;;;;7.60;100.00;101851.75;4988046;28;20030;-90
2023/01/04 00:15:16;;;;;;;16.27;4.07;;;;;;;7.60;100.00;101849.13;4989144;28;20026;-91
2023/01/04 00:17:42;;;;;;;11.55;4.03;;;;;;;7.59;100.00;101843.97;4988518;28;20495;-91
2023/01/04 00:20:08;;;;;;;9.30;3.55;;;;;;;7.58;100.00;101837.03;4988928;28;20077;-91
2023/01/04 00:22:34;;;;;;;11.02;3.65;;;;;;;7.58;100.00;101842.28;4989697;28;20014;-92
2023/01/04 00:24:59;;;;;;;12.27;4.03;;;;;;;7.58;100.00;101837.03;4990603;28;20076;-91
2023/01/04 00:27:25;;;;;;;12.68;4.00;;;;;;;7.57;100.00;101830.09;5004825;28;20050;-92
2023/01/04 00:29:50;;;;;;;10.23;3.65;;;;;;;7.55;100.00;101812.69;4991040;28;20027;-92
2023/01/04 00:32:16;;;;;;;8.95;3.90;;;;;;;7.59;100.00;101813.41;4989582;28;20026;-92
2023/01/04 00:34:41;;;;;;;10.93;3.72;;;;;;;7.60;100.00;101803.78;4988726;28;20038;-91
2023/01/04 00:37:06;;;;;;;7.63;3.67;;;;;;;7.60;100.00;101803.78;5006562;28;20038;-91
2023/01/04 00:39:32;;;;;;;10.85;3.92;;;;;;;7.62;100.00;101809.81;4989967;28;20053;-91
2023/01/04 00:42:04;;;;;;;10.10;3.70;;;;;;;7.64;100.00;101795.72;4991571;28;20030;-94
2023/01/04 00:44:31;;;;;;;10.40;3.80;;;;;;;7.64;100.00;101800.97;4988652;28;20023;-92
2023/01/04 00:46:58;;;;;;;9.18;3.58;;;;;;;7.66;100.00;101793.03;4992064;28;20036;-91
2023/01/04 00:49:25;;;;;;;9.27;3.60;;;;;;;7.68;100.00;101792.03;4989602;28;20034;-92
2023/01/04 00:51:50;;;;;;;7.00;3.30;;;;;;;7.69;100.00;101782.41;4991201;28;20356;-94
2023/01/04 00:54:16;;;;;;;8.63;3.25;;;;;;;7.73;100.00;101783.97;4989547;28;20030;-90
2023/01/04 00:56:42;;;;;;;6.80;3.17;;;;;;;7.74;100.00;101780.41;5005833;28;20117;-92
2023/01/04 00:59:08;;;;;;;8.15;3.17;;;;;;;7.76;100.00;101775.97;4989508;28;20038;-91
2023/01/04 01:01:34;;;;;;;7.75;3.22;;;;;;;7.79;100.00;101778.44;4991553;28;20041;-91
2023/01/04 01:04:04;;;;;;;10.88;2.80;;;;;;;7.82;100.00;101778.28;4992190;28;20387;-93
2023/01/04 01:06:31;;;;;;;8.07;2.78;;;;;;;7.82;100.00;101773.03;5010321;28;20356;-91
2023/01/04 01:08:57;;;;;;;6.13;2.90;;;;;;;7.84;100.00;101760.72;4993429;28;20058;-92
2023/01/04 01:11:23;;;;;;;5.40;2.70;;;;;;;7.87;100.00;101771.03;4997221;28;20125;-92
2023/01/04 01:13:49;;;;;;;6.35;2.28;;;;;;;7.89;100.00;101760.50;4997324;28;20084;-92
2023/01/04 01:16:19;;;;;;;6.18;2.40;;;;;;;7.90;100.00;101760.41;4992920;28;20026;-91
2023/01/04 01:18:46;;;;;;;6.13;2.22;;;;;;;7.92;100.00;101761.19;4996635;28;20449;-92
2023/01/04 01:21:14;;;;;;;5.25;2.05;;;;;;;7.92;100.00;101758.56;4995341;28;20141;-92
2023/01/04 01:23:40;;;;;;;6.03;2.10;;;;;;;7.94;100.00;101755.88;5010827;28;20571;-91
2023/01/04 01:26:09;;;;;;;5.22;2.33;;;;;;;7.95;100.00;101753.19;4994488;28;20034;-91
2023/01/04 01:28:35;;;;;;;6.82;2.10;;;;;;;7.97;100.00;101753.94;4993300;28;20033;-93
2023/01/04 01:31:10;;;;;;;5.68;2.28;;;;;;;7.99;100.00;101770.44;4991868;28;20134;-91
2023/01/04 01:33:40;;;;;;;5.03;2.10;;;;;;;7.99;100.00;101743.41;4991124;28;20034;-91
2023/01/04 01:36:07;;;;;;;3.60;2.10;;;;;;;7.99;100.00;101743.41;4994113;28;20042;-91
2023/01/04 01:38:33;;;;;;;3.92;2.20;;;;;;;7.99;100.00;101744.25;4992645;28;20499;-91
2023/01/04 01:40:59;;;;;;;7.95;2.55;;;;;;;8.00;100.00;101740.69;4994336;28;20390;-91
2023/01/04 01:43:50;;;;;;;6.57;2.30;;;;;;;8.02;100.00;101749.38;4978932;28;20030;-90
2023/01/04 01:46:28;;;;;;;5.10;2.60;;;;;;;8.01;100.00;101734.56;5001828;28;20030;-91
2023/01/04 01:48:59;;;;;;;5.43;2.38;;;;;;;8.01;100.00;101737.19;4993425;28;20446;-91
2023/01/04 01:51:26;;;;;;;4.50;2.05;;;;;;;8.00;100.00;101740.69;4992211;28;20026;-91
2023/01/04 01:53:58;;;;;;;4.95;2.30;;;;;;;8.02;100.00;101736.25;4993623;28;20350;-92
2023/01/04 01:56:27;;;;;;;7.78;2.20;;;;;;;8.04;100.00;101729.16;4993111;28;20030;-90
2023/01/04 01:58:54;;;;;;;5.03;2.03;;;;;;;8.06;100.00;101732.56;4974335;28;20430;-92
2023/01/04 02:01:21;;;;;;;4.72;2.03;;;;;;;8.08;100.00;101728.09;4986252;28;20034;-92
2023/01/04 02:03:46;;;;;;;5.32;2.13;;;;;;;8.07;100.00;101721.16;4992604;28;20450;-92
2023/01/04 02:06:20;;;;;;;4.10;1.90;;;;;;;8.10;100.00;101731.50;4988481;28;20034;-92
2023/01/04 02:08:47;;;;;;;5.57;1.98;;;;;;;8.12;100.00;101724.41;4990497;28;20061;-93
2023/01/04 02:11:13;;;;;;;5.25;2.05;;;;;;;8.14;100.00;101734.81;4994972;28;20236;-92
2023/01/04 02:16:38;;;;;;;5.63;1.73;;;;;;;8.18;100.00;101742.44;4994017;28;20128;-92
2023/01/04 02:19:35;;;;;;;2.55;1.80;;;;;;;8.21;100.00;101733.56;5005637;28;20031;-91
2023/01/04 02:22:12;;;;;;;4.15;2.13;;;;;;;8.22;100.00;101724.78;5008377;28;20517;-91
2023/01/04 02:24:56;;;;;;;2.72;1.73;;;;;;;8.24;100.00;101727.31;4992120;28;20184;-90
2023/01/04 02:27:28;;;;;;;5.18;1.70;;;;;;;8.26;100.00;101733.34;4993839;28;20034;-90
2023/01/04 02:30:35;;;;;;;5.60;1.67;;;;;;;8.29;100.00;101725.31;4993583;28;20072;-91
2023/01/04 02:33:13;;;;;;;4.65;1.75;;;;;;;8.31;100.00;101729.56;4931946;29;20039;-91
2023/01/04 02:35:53;;;;;;;1.92;1.33;;;;;;;8.35;100.00;101715.38;4984318;28;20398;-91
2023/01/04 02:38:57;;;;;;;2.15;1.65;;;;;;;8.37;100.00;101697.81;5006349;28;20128;-91
2023/01/04 02:41:38;;;;;;;5.93;1.60;;;;;;;8.38;100.00;101678.53;4984985;28;20057;-91
2023/01/04 02:47:03;;;;;;;2.78;1.58;;;;;;;8.43;100.00;101676.53;4992515;28;20053;-91
2023/01/04 02:52:13;;;;;;;3.55;1.50;;;;;;;8.47;100.00;101666.75;4993608;28;20096;-92
2023/01/04 02:54:40;;;;;;;2.88;1.58;;;;;;;8.50;100.00;101665.72;4992960;28;20038;-91
2023/01/04 02:57:11;;;;;;;2.00;1.27;;;;;;;8.52;100.00;101669.13;4991782;28;20045;-93
2023/01/04 03:00:11;;;;;;;1.63;1.30;;;;;;;8.53;100.00;101660.31;5008110;28;20038;-90
2023/01/04 03:08:47;;;;;;;2.05;1.38;;;;;;;8.55;100.00;101658.47;4992068;28;20518;-91
2023/01/04 03:14:21;;;;;;;3.25;1.58;;;;;;;8.59;100.00;101645.09;4993311;28;20457;-90
2023/01/04 03:16:50;;;;;;;3.05;1.75;;;;;;;8.60;100.00;101633.69;4990388;28;20092;-93
2023/01/04 03:35:21;;;;;;;2.03;1.60;;;;;;;8.63;100.00;101625.66;4980409;28;20053;-91
2023/01/04 03:36:05;;;;;;;1.63;1.50;;;;;;;8.77;100.00;101628.38;4992734;28;20053;-92
2023/01/04 03:51:16;;;;;;;4.10;2.10;;;;;;;8.86;100.00;101592.09;4991359;28;20049;-93
2023/01/04 03:54:03;;;;;;;2.20;1.98;;;;;;;8.87;100.00;101604.28;4988853;28;20042;-91
2023/01/04 03:56:31;;;;;;;3.72;1.85;;;;;;;8.87;100.00;101597.25;4990205;28;20026;-93
2023/01/04 03:58:57;;;;;;;1.98;1.77;;;;;;;8.88;100.00;101587.59;4984966;28;20022;-91
2023/01/04 04:01:25;;;;;;;4.45;2.28;;;;;;;8.89;100.00;101581.41;4985713;28;20035;-93
2023/01/04 04:09:22;;;;;;;2.83;2.10;;;;;;;8.96;100.00;101581.00;4973817;28;20045;-92
2023/01/04 04:11:48;;;;;;;2.80;2.20;;;;;;;8.97;100.00;101577.44;4978988;28;20137;-93
2023/01/04 04:14:14;;;;;;;3.25;2.17;;;;;;;8.99;100.00;101575.56;4987602;28;20066;-90
2023/01/04 04:16:40;;;;;;;3.33;2.10;;;;;;;9.04;100.00;101570.91;4985561;28;20038;-90
2023/01/04 04:19:05;;;;;;;3.47;2.03;;;;;;;9.03;100.00;101563.13;4988067;28;20022;-91
2023/01/04 04:21:31;;;;;;;4.65;2.28;;;;;;;9.06;100.00;101568.19;4989699;28;20045;-92
2023/01/04 04:23:57;;;;;;;5.60;2.95;;;;;;;9.06;100.00;101562.94;4989339;28;20092;-93
2023/01/04 04:26:22;;;;;;;3.83;2.30;;;;;;;9.06;100.00;101560.31;4990920;28;20125;-90
2023/01/04 04:28:51;;;;;;;3.50;2.50;;;;;;;9.07;100.00;101573.34;4990851;28;20022;-91
2023/01/04 04:31:17;;;;;;;4.93;2.47;;;;;;;9.07;100.00;101554.97;4991227;28;20165;-89
2023/01/04 04:33:42;;;;;;;2.95;2.50;;;;;;;9.11;100.00;101553.03;4989663;28;20117;-92
2023/01/04 04:36:09;;;;;;;4.10;2.50;;;;;;;9.18;100.00;101541.25;4981139;28;20058;-92
2023/01/04 04:38:35;;;;;;;4.18;2.47;;;;;;;9.19;100.00;101534.22;4987968;28;20030;-91
2023/01/04 04:43:50;;;;;;;4.25;2.47;;;;;;;9.22;100.00;101534.91;4990084;28;20251;-92
2023/01/04 04:46:16;;;;;;;5.43;2.53;;;;;;;9.25;100.00;101529.47;4994353;28;20458;-93
2023/01/04 04:48:42;;;;;;;4.30;2.83;;;;;;;9.30;100.00;101527.44;4994009;28;20113;-91
2023/01/04 04:51:07;;;;;;;4.25;2.50;;;;;;;9.34;100.00;101528.94;4993169;28;20130;-91
2023/01/04 04:53:33;;;;;;;3.70;2.53;;;;;;;9.36;100.00;101523.59;4988416;28;20030;-91
2023/01/04 04:55:58;;;;;;;4.32;2.67;;;;;;;9.37;100.00;101520.88;4974541;28;20027;-91
2023/01/04 04:58:24;;;;;;;3.17;2.33;;;;;;;9.37;100.00;101517.41;4975711;28;20031;-90
2023/01/04 05:00:49;;;;;;;5.95;2.53;;;;;;;9.39;100.00;101508.50;4980870;28;20026;-91
2023/01/04 05:03:15;;;;;;;5.25;2.58;;;;;;;9.43;100.00;101522.31;4981097;28;20057;-92
2023/01/04 05:05:41;;;;;;;5.38;2.63;;;;;;;9.46;100.00;101505.50;4983788;28;20033;-90
2023/01/04 05:08:09;;;;;;;6.30;2.53;;;;;;;9.50;100.00;101522.78;4991459;28;20031;-91
2023/01/04 05:10:37;;;;;;;4.60;2.35;;;;;;;9.50;100.00;101522.78;4992459;28;20380;-92
2023/01/04 05:13:09;;;;;;;4.72;2.25;;;;;;;9.53;100.00;101505.06;4991682;28;20046;-91
2023/01/04 05:15:40;;;;;;;7.35;2.70;;;;;;;9.55;100.00;101515.47;4992894;28;20019;-90
2023/01/04 05:18:08;;;;;;;6.53;2.03;;;;;;;9.57;100.00;101508.34;4994614;28;20101;-90
2023/01/04 05:20:34;;;;;;;5.53;2.75;;;;;;;9.59;100.00;101495.97;4994199;28;20030;-91
2023/01/04 05:23:00;;;;;;;5.97;2.22;;;;;;;9.61;100.00;101494.13;4994665;28;20038;-90
2023/01/04 05:25:25;;;;;;;3.50;2.00;;;;;;;9.63;100.00;101494.88;5007704;28;20155;-91
2023/01/04 05:27:51;;;;;;;4.75;2.30;;;;;;;9.67;100.00;101505.09;4995018;28;20030;-91
2023/01/04 05:33:01;;;;;;;3.65;2.00;;;;;;;9.73;100.00;101490.75;4994236;28;20137;-90
2023/01/04 05:35:27;;;;;;;3.80;2.00;;;;;;;9.75;100.00;101491.50;4993027;28;20125;-90
2023/01/04 05:37:53;;;;;;;5.07;1.98;;;;;;;9.78;100.00;101480.81;4993681;28;20109;-92
2023/01/04 05:40:22;;;;;;;3.80;1.98;;;;;;;9.79;100.00;101486.91;4993895;28;20033;-90
2023/01/04 05:42:47;;;;;;;4.68;1.80;;;;;;;9.80;100.00;101483.34;4992170;28;20030;-90
2023/01/04 05:45:14;;;;;;;4.13;1.90;;;;;;;9.82;100.00;101490.19;4992828;28;20022;-90
2023/01/04 05:47:39;;;;;;;4.80;2.20;;;;;;;9.81;100.00;101480.63;4991216;28;20062;-91
2023/01/04 05:50:06;;;;;;;4.43;2.00;;;;;;;9.83;100.00;101483.16;4973931;28;20061;-90
2023/01/04 05:52:32;;;;;;;4.65;2.13;;;;;;;9.84;100.00;101480.44;4990886;28;20051;-91
2023/01/04 05:54:57;;;;;;;4.63;2.03;;;;;;;9.85;100.00;101473.38;5004374;28;20498;-91
2023/01/04 05:57:23;;;;;;;4.93;1.80;;;;;;;9.84;100.00;101464.66;4992414;28;20054;-90
2023/01/04 05:59:49;;;;;;;2.40;1.80;;;;;;;9.85;100.00;101458.47;4991679;28;20041;-90
2023/01/04 06:02:21;;;;;;;3.72;1.73;;;;;;;9.87;100.00;101464.47;4993689;28;20026;-91
2023/01/04 06:04:47;;;;;;;2.78;1.90;;;;;;;9.89;100.00;101461.75;4989483;28;20022;-92
2023/01/04 06:07:16;;;;;;;4.93;1.90;;;;;;;9.90;100.00;101472.16;4985529;28;20034;-89
2023/01/04 06:09:42;;;;;;;4.05;1.80;;;;;;;9.90;100.00;101469.53;4993031;28;20372;-91
2023/01/04 06:12:08;;;;;;;4.28;1.80;;;;;;;9.93;100.00;101464.09;4992430;28;20109;-93
2023/01/04 06:14:35;;;;;;;3.88;1.50;;;;;;;9.97;100.00;101475.25;4986829;28;20100;-91
2023/01/04 06:17:00;;;;;;;5.38;2.00;;;;;;;9.99;100.00;101479.47;5007295;28;20533;-90
2023/01/04 06:19:26;;;;;;;4.10;1.60;;;;;;;10.00;100.00;101480.31;4991659;28;20033;-89
2023/01/04 06:21:52;;;;;;;3.13;1.67;;;;;;;10.01;100.00;101482.91;4991297;28;20084;-89
2023/01/04 06:24:20;;;;;;;6.18;2.00;;;;;;;10.01;100.00;101482.91;4989577;28;20026;-90
2023/01/04 06:26:49;;;;;;;5.70;1.88;;;;;;;10.02;100.00;101489.84;4988073;28;20058;-90
2023/01/04 06:29:15;;;;;;;4.00;1.52;;;;;;;10.01;100.00;101464.50;4978813;28;20030;-90
2023/01/04 06:31:41;;;;;;;3.22;1.75;;;;;;;10.00;100.00;101454.03;4991281;28;20049;-91
2023/01/04 06:34:06;;;;;;;4.90;1.50;;;;;;;9.99;100.00;101455.81;4985438;28;20042;-91
2023/01/04 06:36:36;;;;;;;4.25;1.85;;;;;;;9.97;100.00;101443.72;4973229;28;20034;-90
2023/01/04 06:39:01;;;;;;;3.45;1.45;;;;;;;9.95;100.00;101453.47;4989828;28;20034;-89
2023/01/04 06:41:27;;;;;;;3.60;1.70;;;;;;;9.99;100.00;101463.72;4990121;28;20033;-90
2023/01/04 06:43:52;;;;;;;2.90;1.60;;;;;;;9.99;100.00;101454.97;4981560;28;20165;-90
2023/01/04 06:46:21;;;;;;;3.08;1.65;;;;;;;10.00;100.00;101464.56;4974314;28;20031;-89
2023/01/04 06:48:47;;;;;;;3.42;1.58;;;;;;;10.01;100.00;101471.53;4991888;28;20026;-90
2023/01/04 06:51:12;;;;;;;3.13;1.45;;;;;;;10.00;100.00;101468.03;4978800;28;20038;-90
2023/01/04 06:53:38;;;;;;;2.63;1.55;;;;;;;10.02;100.00;101468.81;4985843;28;20034;-89
2023/01/04 06:56:03;;;;;;;3.47;1.55;;;;;;;10.05;100.00;101468.63;4992064;28;20383;-90
2023/01/04 06:58:29;;;;;;;2.78;1.50;;;;;;;10.08;100.00;101472.00;4991300;28;20045;-90
2023/01/04 07:00:55;;;;;;;2.95;1.50;;;;;;;10.10;100.00;101443.81;4993358;28;20104;-91
2023/01/04 07:03:54;;;;;;;2.85;1.45;;;;;;;10.15;100.00;101452.25;4990502;28;20042;-89
2023/01/04 07:16:31;;;;;;;3.10;1.23;;;;;;;10.22;100.00;101432.56;4982333;28;20449;-85
2023/01/04 07:18:57;;;;;;;4.55;1.60;;;;;;;10.24;100.00;101420.16;4989498;28;20022;-85
2023/01/04 07:21:24;;;;;;;3.28;1.30;;;;;;;10.29;100.00;101428.59;4990686;28;20077;-86
2023/01/04 07:23:49;;;;;;;4.28;1.55;;;;;;;10.34;100.00;101431.78;4992015;28;20030;-83
2023/01/04 07:26:22;;;;;;;3.17;1.40;;;;;;;10.34;100.00;101423.88;4985006;28;20023;-83
2023/01/04 07:31:35;;;;;;;2.67;1.30;;;;;;;10.38;100.00;101417.47;4972270;28;20041;-84
2023/01/04 07:34:00;;;;;;;3.53;1.40;;;;;;;10.40;100.00;101425.28;4972393;28;20026;-84
2023/01/04 07:36:25;;;;;;;1.92;0.88;;;;;;;10.46;100.00;101420.50;4969582;28;20093;-86
2023/01/04 07:38:55;;;;;;;4.78;1.33;;;;;;;10.48;100.00;101415.97;4971126;28;20023;-85
2023/01/04 07:41:20;;;;;;;3.10;1.00;;;;;;;10.52;100.00;101406.94;4971101;28;20034;-85
2023/01/04 07:43:52;;;;;;;1.90;1.05;;;;;;;10.51;100.00;101405.25;4977658;28;20022;-85
2023/01/04 07:46:17;;;;;;;3.67;1.17;;;;;;;10.53;100.00;101413.88;4991088;28;20033;-84
2023/01/04 07:48:55;;;;;;;2.63;1.10;;;;;;;10.54;100.00;101412.94;4990328;28;20023;-84
2023/01/04 07:51:23;;;;;;;4.03;1.23;;;;;;;10.57;100.00;101410.09;4989878;28;20031;-85
2023/01/04 07:53:49;;;;;;;3.17;1.10;;;;;;;10.57;100.00;101394.31;4989500;28;20030;-84
2023/01/04 07:56:15;;;;;;;4.30;1.25;;;;;;;10.61;100.00;101384.44;4989665;28;20495;-84
2023/01/04 07:58:41;;;;;;;3.53;1.30;;;;;;;10.66;100.00;101380.56;4989384;28;20031;-85
2023/01/04 08:01:12;;;;;;;7.47;1.45;;;;;;;10.67;100.00;101381.41;4986933;28;20034;-85
2023/01/04 08:03:44;;;;;;;3.10;1.23;;;;;;;10.67;100.00;101376.97;4970031;28;20037;-85
2023/01/04 08:06:11;;;;;;;4.57;1.20;;;;;;;10.72;100.00;101391.63;4971196;28;20022;-84
2023/01/04 08:08:37;;;;;;;5.80;1.33;;;;;;;10.73;100.00;101401.19;4970628;28;20031;-84
2023/01/04 08:11:05;;;;;;;4.40;1.30;;;;;;;10.72;100.00;101400.34;4970329;28;20395;-84
2023/01/04 08:13:31;;;;;;;5.45;1.48;;;;;;;10.72;100.00;101396.88;4983521;28;20058;-84
2023/01/04 08:15:57;;;;;;;3.58;1.20;;;;;;;10.76;100.00;101395.72;4990025;28;20026;-83
2023/01/04 08:18:32;;;;;;;3.22;1.15;;;;;;;10.77;100.00;101403.53;4988384;28;20026;-83
2023/01/04 08:21:05;;;;;;;5.03;1.42;;;;;;;10.78;100.00;101409.63;4988869;28;20113;-84
2023/01/04 08:23:31;;;;;;;4.88;1.40;;;;;;;10.81;100.00;101406.84;4990371;28;20026;-83
2023/01/04 08:26:08;;;;;;;3.20;1.10;;;;;;;10.80;100.00;101419.13;4990229;28;20076;-83
2023/01/04 08:28:34;;;;;;;5.35;1.58;;;;;;;10.82;100.00;101406.72;4990979;28;20030;-82
2023/01/04 08:31:04;;;;;;;6.55;1.70;;;;;;;10.86;100.00;101425.78;5006052;28;20399;-83
2023/01/04 08:33:30;;;;;;;4.65;1.63;;;;;;;10.88;100.00;101403.69;4990373;28;20053;-82
2023/01/04 08:36:10;;;;;;;5.97;1.50;;;;;;;10.92;100.00;101412.22;4991380;28;20030;-82
2023/01/04 08:38:36;;;;;;;5.78;1.58;;;;;;;10.91;100.00;101419.28;4971155;28;20037;-82
2023/01/04 08:41:01;;;;;;;5.43;1.52;;;;;;;10.92;100.00;101410.44;4971405;28;20105;-83
2023/01/04 08:43:26;;;;;;;7.35;1.80;;;;;;;10.92;100.00;101417.47;4970756;28;20422;-82
2023/01/04 08:45:52;;;;;;;7.70;2.00;;;;;;;10.94;100.00;101415.59;4985376;28;20832;-82
2023/01/04 08:48:21;;;;;;;3.67;1.67;;;;;;;10.93;100.00;101419.19;4987717;28;20027;-84
2023/01/04 08:50:47;;;;;;;4.97;1.55;;;;;;;10.97;100.00;101423.28;4986487;28;20042;-83
2023/01/04 08:53:33;;;;;;;4.85;1.50;;;;;;;10.98;100.00;101419.72;4972018;28;20439;-83
2023/01/04 08:55:59;;;;;;;5.82;1.50;;;;;;;11.01;100.00;101422.13;4989921;28;20030;-82
2023/01/04 08:58:26;;;;;;;4.60;1.48;;;;;;;11.05;100.00;101428.88;4989370;28;20027;-82
2023/01/04 09:00:52;;;;;;;6.30;1.45;;;;;;;11.05;100.00;101423.63;4989673;28;20030;-82
2023/01/04 09:03:21;;;;;;;5.00;1.60;;;;;;;11.07;100.00;101421.72;4988642;28;20027;-82
2023/01/04 09:05:46;;;;;;;9.85;1.60;;;;;;;11.09;100.00;101430.38;4990604;28;20029;-82
2023/01/04 09:08:11;;;;;;;4.78;1.50;;;;;;;11.12;100.00;101427.53;4989401;28;20026;-83
2023/01/04 09:10:37;;;;;;;5.60;1.33;;;;;;;11.13;100.00;101413.41;4988418;28;20030;-83
2023/01/04 09:13:13;;;;;;;3.55;1.33;;;;;;;11.17;100.00;101422.78;5001903;28;20097;-83
2023/01/04 09:15:42;;;;;;;3.97;1.10;;;;;;;11.18;100.00;101419.19;4989037;28;20388;-83
2023/01/04 09:18:10;;;;;;;5.70;1.40;;;;;;;11.18;100.00;101411.31;4988488;28;20023;-83
2023/01/04 09:20:36;;;;;;;3.83;1.30;;;;;;;11.19;100.00;101420.03;4989047;28;20027;-83
2023/01/04 09:23:01;;;;;;;16.00;2.05;;;;;;;11.19;100.00;101420.88;4990176;28;20055;-83
2023/01/04 09:25:27;;;;;;;2.20;1.10;;;;;;;11.19;100.00;101418.25;4989629;28;20460;-83
2023/01/04 09:27:52;;;;;;;4.50;1.48;;;;;;;11.18;100.00;101424.47;4975291;28;20527;-82
2023/01/04 09:30:17;;;;;;;4.13;1.08;;;;;;;11.16;100.00;101418.47;4972221;28;20038;-80
2023/01/04 09:32:43;;;;;;;4.68;1.20;;;;;;;11.17;100.00;101427.22;4974104;28;20030;-82
2023/01/04 09:35:11;;;;;;;4.63;1.00;;;;;;;11.16;100.00;101421.09;4973347;28;20034;-82
2023/01/04 09:37:39;;;;;;;3.47;1.38;;;;;;;11.13;100.00;101426.56;4977099;28;20027;-82
2023/01/04 09:40:05;;;;;;;3.60;1.25;;;;;;;11.10;100.00;101432.03;4974398;28;20066;-83
2023/01/04 09:42:37;;;;;;;2.88;1.30;;;;;;;11.08;100.00;101428.69;4973957;28;20054;-83
2023/01/04 09:45:21;;;;;;;5.28;1.70;;;;;;;11.05;100.00;101422.78;4986158;28;20057;-83
2023/01/04 09:48:02;;;;;;;4.82;1.58;;;;;;;11.01;100.00;101416.03;4974732;28;20030;-83
2023/01/04 09:50:33;;;;;;;5.53;1.67;;;;;;;10.99;100.00;101418.75;4972301;28;20018;-83
2023/01/04 09:53:23;;;;;;;6.55;1.50;;;;;;;10.98;100.00;101422.34;4974380;28;20023;-83
2023/01/04 09:55:52;;;;;;;4.35;1.60;;;;;;;10.94;100.00;101432.22;4972507;28;20035;-82
2023/01/04 09:58:33;;;;;;;7.97;2.25;;;;;;;10.98;100.00;101425.81;4987645;28;20090;-83
2023/01/04 10:01:39;;;;;;;6.68;1.60;;;;;;;11.02;100.00;101409.81;4989950;28;20157;-83
2023/01/04 10:04:22;;;;;;;5.90;1.38;;;;;;;11.02;100.00;101410.66;4993026;28;20030;-81
2023/01/04 10:06:48;;;;;;;;;;;;;;;11.05;100.00;101410.44;5008943;28;20030;-81
2023/01/04 10:09:15;;;;;;;5.50;1.70;;;;;;;10.98;100.00;101402.13;4991818;28;20663;-82
2023/01/04 10:11:51;;;;;;;4.53;1.92;;;;;;;10.98;100.00;101401.28;5006631;28;20235;-83
2023/01/04 10:14:52;;;;;;;5.80;2.05;;;;;;;10.98;100.00;101406.53;4991279;28;20041;-82
2023/01/04 10:17:31;;;;;;;4.95;2.20;;;;;;;10.95;100.00;101401.47;5005255;28;20026;-82
2023/01/04 10:20:30;;;;;;;4.05;1.88;;;;;;;10.95;100.00;101396.22;4980605;28;20030;-82
2023/01/04 10:23:17;;;;;;;5.07;2.22;;;;;;;10.96;100.00;101401.38;4992610;28;20026;-82
2023/01/04 10:26:08;;;;;;;6.50;2.38;;;;;;;10.94;100.00;101402.44;4990250;28;20041;-82
2023/01/04 10:28:54;;;;;;;6.53;2.10;;;;;;;10.95;100.00;101402.31;4992273;28;20034;-82
2023/01/04 10:31:23;;;;;;;4.78;2.03;;;;;;;10.93;100.00;101409.47;4991334;28;20029;-82
2023/01/04 10:34:14;;;;;;;5.68;2.17;;;;;;;10.94;100.00;101400.63;4992353;28;20026;-82
2023/01/04 10:36:41;;;;;;;5.70;2.13;;;;;;;10.93;100.00;101400.75;4989409;28;20026;-83
2023/01/04 10:39:15;;;;;;;8.27;2.53;;;;;;;10.92;100.00;101396.44;4991669;28;20026;-83
2023/01/04 10:41:55;;;;;;;5.18;2.38;;;;;;;10.96;100.00;101392.63;4991562;28;20022;-83
2023/01/04 10:44:53;;;;;;;5.05;2.33;;;;;;;10.97;100.00;101396.97;4992132;28;20053;-82
2023/01/04 10:47:43;;;;;;;7.50;2.50;;;;;;;10.95;100.00;101390.94;4991618;28;20041;-82
2023/01/04 10:50:26;;;;;;;4.85;2.00;;;;;;;10.94;100.00;101384.00;4991018;28;20050;-82
2023/01/04 10:52:54;;;;;;;;;;;;;;;10.98;100.00;101385.47;4992485;28;20105;-82
2023/01/04 10:55:49;;;;;;;5.05;2.03;;;;;;;10.98;100.00;101382.84;4992152;28;19913;-82
2023/01/04 10:58:21;;;;;;;10.73;2.67;;;;;;;10.94;100.00;101376.09;4992525;28;20537;-82
2023/01/04 11:01:09;;;;;;;5.85;1.80;;;;;;;10.95;100.00;101378.63;4992418;28;20033;-81
2023/01/04 11:03:50;;;;;;;3.58;1.63;;;;;;;10.99;100.00;101374.00;4990750;28;20452;-82
2023/01/04 11:06:32;;;;;;;4.03;1.83;;;;;;;10.96;100.00;101380.31;5002683;28;20030;-82
2023/01/04 11:09:31;;;;;;;5.13;1.80;;;;;;;10.96;100.00;101377.69;4991310;28;20034;-81
2023/01/04 11:12:00;;;;;;;3.00;1.30;;;;;;;10.94;100.00;101390.09;4991979;28;20529;-84
2023/01/04 11:14:26;;;;;;;4.57;1.75;;;;;;;10.96;100.00;101384.75;4990286;28;20022;-83
2023/01/04 11:17:19;;;;;;;2.50;1.52;;;;;;;10.98;100.00;101385.47;4991107;28;20391;-81
2023/01/04 11:19:57;;;;;;;5.50;1.50;;;;;;;10.95;100.00;101383.06;4991864;28;20697;-81
2023/01/04 11:22:42;;;;;;;2.45;1.02;;;;;;;10.96;100.00;101382.94;4987997;28;20121;-83
2023/01/04 11:25:30;;;;;;;3.75;1.27;;;;;;;10.98;100.00;101388.13;4993187;28;20042;-83
2023/01/04 11:28:05;;;;;;;3.42;1.10;;;;;;;10.97;100.00;101389.06;4989635;28;20034;-81
2023/01/04 11:31:03;;;;;;;4.18;1.00;;;;;;;10.97;100.00;101389.06;4991083;28;20030;-82
2023/01/04 11:33:31;;;;;;;1.40;0.90;;;;;;;10.97;100.00;101383.78;4990948;28;20174;-80
2023/01/04 11:36:07;;;;;;;2.00;1.00;;;;;;;10.99;100.00;101389.78;5005761;28;20026;-80
2023/01/04 11:38:35;;;;;;;2.70;1.00;;;;;;;10.98;100.00;101382.84;4989893;28;20037;-81
2023/01/04 11:41:06;;;;;;;3.25;0.90;;;;;;;10.99;100.00;101397.69;4980358;28;20447;-80
2023/01/04 11:43:39;;;;;;;2.55;0.93;;;;;;;10.98;100.00;101385.47;4985519;28;20027;-81
2023/01/04 11:46:16;;;;;;;1.98;0.80;;;;;;;10.99;100.00;101381.91;4971315;28;20027;-81
2023/01/04 11:48:49;;;;;;;1.15;0.60;;;;;;;10.98;100.00;101382.84;4971057;28;20107;-80
2023/01/04 11:51:26;;;;;;;2.58;0.82;;;;;;;10.99;100.00;101392.44;4971642;28;20034;-80
2023/01/04 11:54:30;;;;;;;1.30;0.60;;;;;;;11.01;100.00;101390.53;4971683;28;20054;-81
2023/01/04 11:57:11;;;;;;;1.23;0.57;;;;;;;10.97;100.00;101397.81;4974173;28;20057;-80
2023/01/04 12:03:08;;;;;;;0.57;0.57;;;;;;;10.98;100.00;101391.59;4990611;28;20037;-81
2023/01/04 12:05:37;;;;;;;1.10;0.70;;;;;;;10.99;100.00;101376.63;4990971;28;20026;-81
2023/01/04 12:08:30;;;;;;;3.00;0.60;;;;;;;11.03;100.00;101387.81;4989657;28;20386;-81
2023/01/04 12:11:14;;;;;;;2.35;0.70;;;;;;;11.02;100.00;101391.38;4989347;28;20022;-81
2023/01/04 12:13:42;;;;;;;2.75;0.60;;;;;;;11.04;100.00;101395.59;4987508;28;20459;-81
2023/01/04 12:16:42;;;;;;;1.20;0.50;;;;;;;11.04;100.00;101403.50;4986915;28;20503;-81
2023/01/04 12:19:14;;;;;;;0.93;0.52;;;;;;;11.04;100.00;101395.59;4970827;28;20046;-83
2023/01/04 12:21:52;;;;;;;1.13;0.70;;;;;;;11.06;100.00;101398.97;4990999;28;20101;-83
2023/01/04 12:24:23;;;;;;;0.88;0.50;;;;;;;11.06;100.00;101401.59;4990429;28;20683;-83
2023/01/04 12:26:51;;;;;;;1.42;0.57;;;;;;;11.07;100.00;101398.03;4991295;28;20077;-82
2023/01/04 12:29:44;;;;;;;1.17;0.57;;;;;;;11.11;100.00;101375.78;4989719;28;20034;-82
2023/01/04 12:32:10;;;;;;;0.70;0.40;;;;;;;11.11;100.00;101385.50;4987592;28;20484;-83
2023/01/04 12:34:42;;;;;;;0.40;0.40;;;;;;;11.12;100.00;101393.28;4989473;28;20036;-83
2023/01/04 12:37:08;;;;;;;;;;;;;;;11.19;100.00;101378.75;4989465;28;20482;-83
2023/01/04 12:39:42;;;;;;;0.95;0.50;;;;;;;11.13;100.00;101384.44;4988361;28;19910;-81
2023/01/04 12:42:10;;;;;;;0.55;0.50;;;;;;;11.18;100.00;101377.06;4988573;28;20045;-81
2023/01/04 12:44:35;;;;;;;2.30;0.65;;;;;;;11.18;100.00;101381.50;4989087;28;20032;-81
2023/01/04 12:50:13;;;;;;;0.50;0.50;;;;;;;11.17;100.00;101385.91;4972898;28;20046;-82
2023/01/04 12:52:44;;;;;;;1.23;0.45;;;;;;;11.16;100.00;101378.97;4985766;28;20099;-83
2023/01/04 12:55:31;;;;;;;0.52;0.40;;;;;;;11.19;100.00;101378.75;4970596;28;20073;-82